Date,TemperatureHighF,TemperatureAvgF,TemperatureLowF,DewpointHighF,DewpointAvgF,DewpointLowF,HumidityHigh,HumidityAvg,HumidityLow,PressureMaxIn,PressureMinIn,WindSpeedMaxMPH,WindSpeedAvgMPH,GustSpeedMaxMPH,PrecipitationSumIn
2013-1-1,38,33,26,29,23,14,77,67,56,29.91,29.75,5,3,8,0.05
2013-1-2,31,25,18,17,13,8,73,60,51,30.07,29.91,5,3,9,0.00
2013-1-3,23,19,13,15,10,4,85,68,51,30.15,30.04,3,2,4,0.00
2013-1-4,36,31,18,30,23,12,81,74,64,30.05,29.86,5,2,8,0.07
2013-1-5,41,34,30,27,24,22,79,67,53,30.28,29.89,5,2,8,0.06
2013-1-6,40,35,31,37,32,23,96,89,70,30.25,29.96,3,1,8,0.04
2013-1-7,41,34,29,35,30,25,94,85,74,30.43,29.99,5,2,9,0.00
2013-1-8,44,38,33,37,35,30,94,87,76,30.42,30.32,4,2,11,0.00
2013-1-9,45,38,30,42,36,29,97,93,73,30.42,30.05,5,1,12,0.01
2013-1-10,45,41,37,36,30,26,77,64,49,30.51,30.07,5,3,13,0.00
2013-1-11,42,37,31,37,33,28,94,84,74,30.51,30.25,4,1,13,0.06
2013-1-12,45,42,38,42,40,36,97,93,85,30.27,30.15,5,2,13,0.04
2013-1-13,45,43,42,45,43,40,99,98,96,30.19,30.06,3,1,13,0.03
2013-1-14,52,45,42,52,44,36,100,95,70,30.26,29.98,5,2,13,0.01
2013-1-15,43,40,38,39,38,35,96,90,81,30.27,30.21,4,1,13,0.14
2013-1-16,43,39,36,42,39,36,98,97,90,30.24,29.74,8,2,10,0.66
2013-1-17,42,37,33,35,32,25,98,83,65,30.08,29.87,5,2,7,0.00
2013-1-18,33,23,18,26,12,2,96,65,43,30.50,30.02,7,3,15,0.00
2013-1-19,43,38,18,39,33,6,95,83,60,30.46,30.00,8,5,13,0.04
2013-1-20,47,42,31,42,36,14,97,81,49,29.99,29.61,7,4,12,0.01
2013-1-21,31,28,24,27,16,8,96,63,42,30.12,29.79,4,2,8,0.00
2013-1-22,28,23,15,27,14,1,96,69,38,30.07,29.72,5,2,11,0.00
2013-1-23,16,13,9,4,-2,-5,72,51,42,30.16,30.06,5,3,10,0.00
2013-1-24,19,13,6,7,0,-5,72,55,38,30.19,30.03,7,4,17,0.00
2013-1-25,24,17,10,10,3,-2,62,52,40,30.32,30.06,4,2,6,0.00
2013-1-26,25,22,19,21,14,3,92,73,46,30.19,29.97,6,3,13,0.00
2013-1-27,28,22,17,14,10,7,73,59,45,30.47,30.19,6,3,13,0.00
2013-1-28,34,26,17,33,16,5,97,69,42,30.46,30.02,3,1,4,0.05
2013-1-29,38,36,33,37,35,32,97,97,95,30.23,30.00,5,1,6,0.18
2013-1-30,48,42,36,48,42,35,99,98,96,30.18,29.62,9,6,14,0.09
2013-1-31,51,43,33,50,39,15,100,86,47,29.62,29.12,13,6,18,0.08
2013-2-1,34,30,24,18,12,8,63,48,39,30.09,29.63,5,3,13,0.00
2013-2-2,31,26,20,26,14,5,91,61,41,30.28,30.07,4,2,5,0.00
2013-2-3,33,28,22,30,26,21,96,91,80,30.07,29.65,4,1,8,0.04
2013-2-4,31,26,23,25,14,8,93,63,41,29.97,29.68,6,3,11,0.00
2013-2-5,32,26,23,31,20,11,97,78,57,30.05,29.93,4,2,5,0.00
2013-2-6,36,32,29,33,27,15,97,83,54,30.27,29.91,3,1,5,0.06
2013-2-7,29,26,22,23,16,11,83,65,50,30.53,30.28,5,2,10,0.00
2013-2-8,35,32,29,33,29,23,98,89,78,30.50,29.28,24,12,32,0.14
2013-2-9,31,23,20,31,22,19,98,96,94,30.09,29.22,20,9,29,0.00
2013-2-10,31,25,20,26,21,18,95,87,66,30.40,30.10,6,2,11,0.01
2013-2-11,42,36,25,42,34,24,99,95,89,30.39,29.63,10,4,16,0.42
2013-2-12,45,39,33,43,32,27,99,77,52,29.89,29.61,5,3,7,0.01
2013-2-13,41,34,30,32,27,23,91,77,54,29.90,29.68,3,1,8,0.00
2013-2-14,40,35,31,31,29,26,96,80,57,30.06,29.69,3,1,16,0.22
2013-2-15,43,38,34,38,36,31,97,90,82,30.08,29.97,4,2,16,0.01
2013-2-16,41,37,34,37,35,33,98,92,81,29.97,29.63,7,3,16,0.00
2013-2-17,35,25,20,33,20,4,96,82,46,29.62,29.23,11,7,22,0.00
2013-2-18,32,24,17,10,6,2,62,47,30,30.17,29.63,8,5,17,0.00
2013-2-19,43,36,26,42,28,5,97,75,41,30.18,29.62,12,4,16,0.56
2013-2-20,41,34,26,40,24,11,98,71,46,29.80,29.57,5,3,16,0.03
2013-2-21,33,28,25,28,18,14,81,64,51,30.08,29.79,7,4,16,0.00
2013-2-22,36,34,32,30,28,26,89,76,68,30.36,30.08,7,3,16,0.00
2013-2-23,39,36,31,38,32,28,97,87,78,30.36,29.89,7,4,16,0.35
2013-2-24,43,39,32,42,38,31,98,97,96,29.88,29.53,12,7,16,1.40
2013-2-25,41,34,29,33,29,24,98,80,56,30.26,29.84,7,3,16,0.11
2013-2-26,41,36,28,36,29,24,95,77,58,30.36,30.16,6,3,16,0.00
2013-2-27,44,42,39,44,41,35,98,96,84,30.16,29.57,14,9,16,0.45
2013-2-28,43,39,36,41,38,35,98,96,91,29.66,29.54,3,1,16,0.02
2013-3-1,40,37,35,33,33,32,92,86,76,29.67,29.60,6,2,18,0.00
2013-3-2,43,37,35,33,31,30,92,80,60,29.68,29.62,4,1,18,0.00
2013-3-3,39,36,34,34,32,30,94,84,75,29.64,29.57,3,1,18,0.00
2013-3-4,40,35,32,32,28,25,94,77,56,29.69,29.57,5,3,18,0.00
2013-3-5,41,36,33,38,33,28,96,87,79,30.06,29.69,7,3,18,0.09
2013-3-6,40,38,35,36,35,33,96,88,79,30.07,29.92,17,11,21,0.03
2013-3-7,38,36,34,36,35,33,98,97,90,29.91,29.82,17,15,23,0.42
2013-3-8,41,36,33,37,34,32,98,94,70,30.04,29.81,15,12,18,0.61
2013-3-9,39,37,35,33,32,31,88,84,77,30.31,30.04,12,9,20,0.00
2013-3-10,40,37,35,34,32,31,87,83,77,30.41,30.31,7,4,18,0.00
2013-3-11,44,39,36,40,36,32,96,90,80,30.36,30.21,6,3,18,0.00
2013-3-12,47,44,40,46,44,39,98,96,94,30.22,29.79,11,7,18,0.13
2013-3-13,48,46,43,47,46,43,99,98,98,29.80,29.74,12,5,19,0.65
2013-3-14,35,30,25,24,15,11,65,53,44,29.81,29.70,5,3,18,0.00
2013-3-15,38,30,22,29,17,10,75,58,34,29.88,29.68,5,4,12,0.00
2013-3-16,38,34,31,28,22,17,74,61,49,29.88,29.69,4,2,12,0.00
2013-3-17,38,33,25,28,20,12,93,62,41,30.30,29.87,6,2,12,0.00
2013-3-18,33,29,24,27,17,8,91,62,45,30.46,30.27,6,3,12,0.00
2013-3-19,42,36,30,42,35,27,98,96,88,30.27,29.49,13,8,19,0.45
2013-3-20,42,34,28,31,26,20,95,73,48,29.85,29.62,6,3,12,0.00
2013-3-21,40,35,29,33,30,26,96,81,58,29.85,29.57,9,4,12,0.00
2013-3-22,38,34,30,32,28,24,97,82,66,29.75,29.57,3,1,12,0.40
2013-3-23,43,36,29,27,23,20,77,60,40,29.78,29.64,5,3,14,0.04
2013-3-24,43,36,32,30,26,21,86,66,46,29.84,29.76,6,3,9,0.00
2013-3-25,43,37,31,36,31,28,92,79,61,29.77,29.44,12,7,17,0.00
2013-3-26,46,39,35,35,29,23,90,69,41,29.77,29.44,11,4,17,0.01
2013-3-27,50,41,31,38,32,26,90,70,43,29.84,29.75,7,2,9,0.00
2013-3-28,47,41,37,38,34,29,95,80,52,30.02,29.83,9,3,11,0.07
2013-3-29,54,44,36,41,36,32,87,74,54,30.05,30.00,4,1,9,0.00
2013-3-30,52,44,39,40,36,32,92,76,48,30.12,30.03,5,2,8,0.00
2013-3-31,48,42,32,43,39,30,95,87,76,30.15,29.81,12,3,14,0.03
2013-4-1,49,45,37,46,42,21,98,90,51,29.79,29.59,15,5,18,0.14
2013-4-2,42,36,30,28,18,10,63,48,30,29.99,29.78,5,3,12,0.00
2013-4-3,46,38,30,22,15,12,55,41,26,30.15,29.95,6,3,8,0.00
2013-4-4,45,38,33,36,25,15,85,60,30,30.32,30.13,6,4,12,0.00
2013-4-5,47,42,40,45,39,33,96,90,70,30.12,29.66,6,2,10,0.07
2013-4-6,42,38,34,33,21,11,77,52,29,30.37,29.85,7,4,12,0.00
2013-4-7,48,42,32,43,35,27,89,78,58,30.37,30.08,8,4,11,0.00
2013-4-8,60,50,43,49,43,38,96,79,52,30.15,30.00,8,3,11,0.00
2013-4-9,59,49,43,52,45,40,98,88,75,30.14,29.87,7,3,10,0.00
2013-4-10,52,46,43,47,43,42,96,90,80,30.03,29.89,8,4,10,0.32
2013-4-11,48,44,42,45,40,37,97,86,70,30.15,29.82,9,4,13,0.05
2013-4-12,43,41,37,42,37,29,98,84,60,30.17,29.66,12,7,14,0.75
2013-4-13,46,41,38,42,39,37,98,91,71,29.97,29.67,12,4,12,0.06
2013-4-14,52,46,41,46,39,32,97,78,51,30.21,29.95,4,1,8,0.00
2013-4-15,50,44,39,41,38,32,95,80,63,30.45,30.20,6,3,8,0.00
2013-4-16,54,47,41,48,44,40,96,89,78,30.46,30.16,8,4,11,0.00
2013-4-17,60,51,43,51,43,35,98,78,41,30.35,30.12,7,3,12,0.01
2013-4-18,50,46,40,46,40,36,93,79,62,30.45,30.22,8,5,16,0.00
2013-4-19,58,54,48,57,53,46,98,96,92,30.21,29.81,10,6,16,0.01
2013-4-20,59,51,44,59,49,39,99,93,79,30.20,29.71,12,4,24,0.42
2013-4-21,47,42,38,39,29,26,79,61,50,30.68,30.20,8,4,12,0.00
2013-4-22,47,42,36,40,34,30,84,74,55,30.74,30.58,11,7,15,0.00
2013-4-23,44,43,40,43,41,36,98,95,82,30.57,29.98,11,8,13,1.01
2013-4-24,54,47,42,50,45,42,98,95,85,29.99,29.80,8,5,22,0.14
2013-4-25,58,50,45,52,46,40,98,87,51,30.27,29.94,6,2,11,0.04
2013-4-26,55,47,41,44,41,38,97,81,56,30.44,30.27,8,3,11,0.01
2013-4-27,56,47,39,45,39,35,97,75,52,30.45,30.35,4,1,8,0.00
2013-4-28,58,50,41,48,44,36,93,80,67,30.39,30.30,3,1,8,0.00
2013-4-29,60,51,44,49,44,39,97,79,47,30.33,30.27,5,2,9,0.00
2013-4-30,58,50,42,43,36,23,90,60,26,30.39,30.28,5,2,8,0.00
2013-5-1,55,49,44,49,45,42,97,87,71,30.50,30.38,6,2,9,0.00
2013-5-2,63,51,42,54,46,41,97,84,54,30.48,30.40,9,2,12,0.00
2013-5-3,50,45,40,44,42,38,96,89,80,30.49,30.38,10,4,16,0.01
2013-5-4,50,46,42,43,41,38,97,84,67,30.38,30.32,11,6,15,0.00
2013-5-5,53,47,43,45,43,41,94,86,70,30.32,30.29,8,5,10,0.00
2013-5-6,55,46,41,50,44,40,98,93,79,30.32,30.21,7,2,9,0.00
2013-5-7,60,53,45,56,52,45,98,94,83,30.23,30.17,6,1,10,0.00
2013-5-8,66,57,52,62,55,51,99,95,82,30.25,30.08,8,4,13,0.03
2013-5-9,62,55,52,62,54,51,99,97,88,30.08,29.92,4,2,8,0.08
2013-5-10,64,58,52,60,56,52,99,93,78,30.00,29.91,4,2,8,0.00
2013-5-11,64,57,54,60,56,53,99,96,85,29.98,29.77,10,3,13,0.48
2013-5-12,60,56,53,58,55,39,99,94,59,29.81,29.63,6,2,8,0.38
2013-5-13,58,52,44,44,39,34,71,62,48,30.01,29.82,7,3,12,0.00
2013-5-14,56,50,45,44,38,30,86,63,38,30.06,29.98,5,2,13,0.01
2013-5-15,60,53,45,55,46,35,95,79,66,30.07,29.72,11,5,16,0.07
2013-5-16,69,60,53,57,54,50,98,82,63,29.79,29.67,5,2,13,0.00
2013-5-17,64,57,50,50,46,43,89,67,49,30.24,29.78,7,3,13,0.00
2013-5-18,64,56,46,56,51,44,94,83,68,30.34,30.23,3,2,13,0.00
2013-5-19,66,59,53,56,53,50,96,82,65,30.39,30.28,4,2,13,0.06
2013-5-20,68,60,55,64,59,54,98,95,85,30.28,29.95,7,3,13,0.29
2013-5-21,64,59,55,61,58,54,98,96,89,30.00,29.90,4,1,13,0.00
2013-5-22,70,57,52,64,56,51,98,95,79,29.97,29.93,4,2,13,0.01
2013-5-23,67,62,59,64,61,59,99,97,90,29.99,29.91,8,4,13,0.27
2013-5-24,63,61,55,62,61,55,100,99,98,29.91,29.72,16,5,18,1.50
2013-5-25,56,51,44,55,50,43,100,97,85,29.75,29.67,4,2,13,0.16
2013-5-26,58,48,41,45,42,38,98,79,56,30.10,29.74,4,2,13,0.01
2013-5-27,69,57,46,54,46,37,85,69,31,30.19,30.10,4,2,13,0.00
2013-5-28,64,57,46,57,52,45,96,84,66,30.27,30.19,5,1,13,0.00
2013-5-29,62,57,54,61,56,54,99,97,93,30.25,30.05,10,4,15,0.75
2013-5-30,73,64,59,67,62,58,99,91,79,30.11,30.05,3,2,13,0.12
2013-5-31,78,67,60,68,63,59,98,87,70,30.11,30.00,3,1,13,0.00
2013-6-1,71,65,60,65,62,60,98,91,80,30.02,29.96,4,2,13,0.00
2013-6-2,69,65,62,65,63,61,98,94,86,29.97,29.86,6,4,13,0.00
2013-6-3,65,63,62,65,62,61,99,99,97,29.89,29.81,6,3,13,1.28
2013-6-4,70,62,54,63,50,44,100,67,44,30.08,29.80,4,2,13,0.00
2013-6-5,69,60,50,54,49,44,89,70,44,30.20,30.08,4,2,13,0.00
2013-6-6,66,60,56,59,54,51,88,81,72,30.23,30.11,6,2,13,0.00
2013-6-7,63,56,54,63,55,52,100,96,87,30.12,29.79,12,4,16,1.35
2013-6-8,69,63,57,65,62,57,100,96,84,30.00,29.58,11,4,15,0.08
2013-6-9,75,67,58,66,62,57,99,84,59,30.16,30.01,3,1,13,0.00
2013-6-10,69,62,56,60,58,55,98,87,68,30.21,30.03,4,2,13,0.46
2013-6-11,66,62,55,65,61,54,100,98,96,30.03,29.56,5,3,13,1.47
2013-6-12,70,61,54,60,57,53,99,86,63,29.79,29.57,6,2,13,0.00
2013-6-13,60,56,54,55,54,52,97,92,85,29.80,29.63,6,2,13,0.16
2013-6-14,59,54,51,55,52,50,98,92,74,29.76,29.55,10,5,13,0.75
2013-6-15,75,64,54,60,54,45,98,75,36,29.97,29.76,4,2,6,0.00
2013-6-16,71,64,60,64,62,59,98,90,76,29.97,29.79,5,2,10,0.00
2013-6-17,74,66,61,67,63,60,98,90,77,29.93,29.80,5,1,8,0.00
2013-6-18,72,64,60,66,62,59,98,92,81,29.94,29.87,5,2,7,0.01
2013-6-19,71,62,56,60,54,47,98,76,48,30.17,29.85,6,3,7,0.06
2013-6-20,72,64,55,62,57,52,96,78,61,30.30,30.17,5,2,9,0.00
2013-6-21,72,66,61,62,58,54,85,77,67,30.31,30.24,4,3,9,0.00
2013-6-22,76,67,63,66,62,58,96,84,64,30.26,30.18,4,2,7,0.00
2013-6-23,74,68,64,68,66,63,98,91,79,30.20,30.08,5,3,11,0.00
2013-6-24,80,73,67,74,70,66,99,90,79,30.08,29.89,4,2,7,0.00
2013-6-25,82,73,68,72,68,65,97,87,70,29.91,29.77,3,1,8,0.00
2013-6-26,84,74,67,74,70,67,98,88,72,29.85,29.73,3,1,7,0.02
2013-6-27,70,66,63,67,65,63,99,97,90,29.86,29.77,3,1,6,0.00
2013-6-28,70,67,64,69,67,64,100,99,98,29.77,29.59,8,5,17,0.70
2013-6-29,69,68,65,69,67,65,100,99,98,29.78,29.58,6,5,11,0.24
2013-6-30,72,68,66,71,68,66,99,98,95,30.00,29.78,4,2,10,0.03
2013-7-1,76,70,67,73,69,67,99,97,90,30.15,29.99,6,3,10,0.02
2013-7-2,76,71,68,73,70,68,99,97,90,30.24,30.14,4,2,10,0.22
2013-7-3,80,74,70,75,72,69,99,94,85,30.25,30.20,3,2,10,0.00
2013-7-4,81,75,71,77,73,71,99,94,84,30.23,30.15,3,2,10,0.00
2013-7-5,84,76,71,77,73,70,98,91,80,30.18,30.08,4,2,10,0.00
2013-7-6,85,77,72,78,74,71,98,91,79,30.10,29.98,3,1,10,0.00
2013-7-7,86,77,72,78,74,70,98,89,75,30.02,29.94,2,1,10,0.00
2013-7-8,83,77,72,76,73,71,99,89,77,30.04,29.94,4,2,8,0.00
2013-7-9,76,71,68,72,70,68,98,95,88,30.10,30.03,2,0,4,0.02
2013-7-10,80,73,67,76,71,66,99,96,84,30.09,29.86,5,2,9,0.00
2013-7-11,74,73,71,73,72,70,99,99,96,29.91,29.83,4,2,10,0.26
2013-7-12,72,68,65,72,67,64,99,97,88,30.18,29.91,5,2,7,0.00
2013-7-13,75,69,65,71,68,65,99,97,88,30.32,30.18,4,1,7,0.14
2013-7-14,81,74,68,77,73,68,99,96,85,30.31,30.20,3,1,7,0.01
2013-7-15,86,78,72,79,75,72,99,91,76,30.20,30.11,3,1,7,0.00
2013-7-16,88,78,71,75,71,66,98,80,61,30.17,30.08,3,1,7,0.00
2013-7-17,80,74,69,73,70,67,95,86,72,30.19,30.06,4,2,7,0.00
2013-7-18,86,78,72,77,73,70,97,86,66,30.06,29.99,4,2,7,0.00
2013-7-19,86,78,73,80,76,72,99,93,81,29.99,29.79,4,2,8,0.00
2013-7-20,85,79,76,79,76,73,98,92,82,29.81,29.69,4,2,9,0.00
2013-7-21,76,72,65,75,69,64,97,91,82,30.01,29.80,3,1,7,0.03
2013-7-22,75,69,65,71,68,64,99,96,83,30.02,29.90,4,1,7,0.00
2013-7-23,83,73,67,78,72,66,99,96,85,29.89,29.58,5,2,8,0.00
2013-7-24,86,78,71,78,74,66,99,87,73,29.87,29.58,3,2,7,0.00
2013-7-25,71,66,63,67,62,59,98,88,80,30.04,29.89,6,4,14,0.22
2013-7-26,67,65,64,67,65,63,99,99,98,30.02,29.84,7,3,12,2.21
2013-7-27,78,71,65,73,69,64,99,92,81,30.08,30.02,4,2,9,0.01
2013-7-28,78,71,67,74,70,66,99,96,86,30.05,29.94,3,0,7,0.52
2013-7-29,78,71,66,73,70,66,99,95,84,30.06,30.00,4,1,7,0.01
2013-7-30,79,71,66,71,66,62,99,85,56,30.10,30.01,3,1,7,0.00
2013-7-31,79,71,61,68,65,60,98,82,61,30.13,30.07,3,1,7,0.00
2013-8-1,76,71,66,69,67,63,97,88,74,30.07,29.91,5,2,10,0.04
2013-8-2,78,70,64,74,68,64,99,91,78,29.91,29.81,4,2,7,0.32
2013-8-3,74,71,68,70,68,66,96,90,77,29.90,29.81,4,2,8,0.04
2013-8-4,78,69,61,68,63,59,95,81,58,29.85,29.78,4,1,7,0.00
2013-8-5,73,66,61,61,57,50,94,73,46,30.04,29.85,3,2,11,0.00
2013-8-6,74,67,59,60,56,52,91,70,49,30.19,30.03,4,1,7,0.00
2013-8-7,73,67,60,65,59,55,91,77,55,30.21,30.16,4,2,7,0.00
2013-8-8,79,71,65,72,67,61,96,89,76,30.16,30.07,5,3,9,0.00
2013-8-9,74,72,68,73,71,66,99,97,91,30.09,29.81,11,5,15,0.16
2013-8-10,83,74,65,73,68,59,99,83,47,29.99,29.80,3,1,7,0.00
2013-8-11,77,69,61,63,59,53,89,71,44,30.08,29.99,5,2,7,0.00
2013-8-12,78,71,64,71,67,62,97,87,71,30.05,29.95,3,1,7,0.00
2013-8-13,70,67,64,69,67,63,99,98,95,29.95,29.68,5,1,7,0.27
2013-8-14,76,68,62,66,60,55,99,80,52,29.94,29.67,3,1,7,0.01
2013-8-15,75,67,58,59,56,47,86,68,39,30.14,29.93,4,2,8,0.00
2013-8-16,78,69,59,66,62,57,96,78,54,30.21,30.12,4,1,8,0.00
2013-8-17,78,68,60,66,63,59,97,84,64,30.28,30.20,4,1,8,0.00
2013-8-18,72,66,61,68,62,58,98,89,73,30.29,30.09,3,1,8,0.11
2013-8-19,79,69,58,71,65,57,98,86,76,30.10,29.97,2,1,8,0.00
2013-8-20,80,73,66,71,67,64,94,83,69,30.10,29.98,3,1,8,0.00
2013-8-21,81,73,64,73,69,62,98,88,73,30.15,30.06,3,1,8,0.00
2013-8-22,80,73,70,75,71,69,98,94,83,30.06,29.86,4,2,9,0.00
2013-8-23,74,69,62,71,64,58,99,85,64,30.08,29.82,6,2,9,0.00
2013-8-24,69,64,58,60,54,48,94,70,49,30.33,30.09,6,2,11,0.00
2013-8-25,78,68,56,66,59,44,89,74,60,30.37,30.23,3,1,8,0.00
2013-8-26,76,71,68,68,66,59,94,84,73,30.23,29.91,4,2,10,0.00
2013-8-27,72,68,64,69,67,64,99,97,92,29.90,29.84,3,1,8,0.38
2013-8-28,73,66,64,69,65,63,99,96,86,29.94,29.85,2,1,8,0.01
2013-8-29,67,64,61,66,62,58,99,95,88,30.04,29.93,5,3,10,0.00
2013-8-30,73,66,58,68,64,57,98,91,80,30.02,29.87,3,1,8,0.00
2013-8-31,75,71,69,72,70,68,98,96,89,29.89,29.84,4,2,8,0.00
2013-9-1,75,72,69,73,71,68,99,97,92,29.92,29.85,4,2,10,0.41
2013-9-2,75,70,66,73,69,66,99,97,87,29.90,29.75,5,2,8,0.00
2013-9-3,78,70,64,75,70,64,99,97,87,29.82,29.71,4,1,8,0.89
2013-9-4,77,68,60,67,64,60,99,87,57,29.94,29.80,3,1,8,0.00
2013-9-5,74,65,56,69,61,52,98,88,76,30.12,29.89,4,2,8,0.01
2013-9-6,67,59,53,53,50,48,93,73,54,30.24,30.12,4,1,4,0.00
2013-9-7,73,65,55,60,56,50,86,74,58,30.13,29.89,4,2,10,0.00
2013-9-8,75,67,58,67,59,47,91,75,59,30.07,29.75,7,2,9,0.00
2013-9-9,66,60,51,56,48,42,80,66,49,30.25,30.08,4,2,8,0.00
2013-9-10,72,67,62,67,62,55,95,86,76,30.21,30.08,7,3,8,0.00
2013-9-11,78,72,68,73,69,67,98,93,82,30.12,30.01,3,2,6,0.00
2013-9-12,77,72,68,72,70,68,99,93,84,30.02,29.73,6,3,10,0.01
2013-9-13,74,69,63,71,68,61,99,96,88,29.73,29.58,6,2,9,0.07
2013-9-14,71,63,57,62,59,55,97,87,70,30.05,29.71,3,1,7,0.00
2013-9-15,70,61,51,58,55,51,98,81,60,30.17,30.05,3,1,7,0.01
2013-9-16,66,60,53,61,56,52,95,87,73,30.19,30.03,5,1,7,0.04
2013-9-17,56,52,47,51,44,40,96,74,56,30.40,30.19,6,3,12,0.01
2013-9-18,70,59,47,56,50,45,96,75,43,30.33,30.16,3,1,7,0.00
2013-9-19,72,63,56,62,57,53,93,81,61,30.16,30.06,3,1,7,0.00
2013-9-20,74,63,54,67,60,53,98,90,75,30.10,30.03,2,1,7,0.01
2013-9-21,70,64,59,65,62,58,98,93,84,30.06,29.81,6,4,10,0.01
2013-9-22,68,64,57,67,62,52,99,95,82,29.81,29.67,7,3,12,0.15
2013-9-23,60,55,50,51,47,45,87,75,61,29.98,29.79,4,2,9,0.00
2013-9-24,60,53,46,49,46,43,91,78,62,29.98,29.84,4,1,7,0.00
2013-9-25,63,54,47,53,49,45,96,82,65,29.97,29.88,3,1,7,0.00
2013-9-26,61,55,50,52,50,48,95,83,70,30.10,29.97,4,1,12,0.00
2013-9-27,60,57,52,55,53,51,97,87,78,30.25,30.10,5,2,8,0.00
2013-9-28,68,58,50,58,53,49,98,84,60,30.31,30.24,3,1,7,0.01
2013-9-29,63,56,48,58,54,47,98,90,77,30.26,30.09,3,1,7,0.01
2013-9-30,64,59,55,59,56,54,98,90,74,30.09,29.95,4,2,7,0.01
2013-10-1,68,60,54,60,55,52,97,83,60,29.95,29.86,3,1,7,0.00
2013-10-2,75,66,56,65,61,55,98,86,64,29.94,29.83,3,1,7,0.00
2013-10-3,74,65,58,61,58,54,93,78,50,30.08,29.94,3,1,7,0.00
2013-10-4,70,59,51,60,56,50,98,89,65,30.08,30.03,3,0,8,0.22
2013-10-5,65,60,56,62,59,56,98,95,85,30.12,30.06,3,0,8,0.01
2013-10-6,61,59,56,59,57,55,98,94,83,30.21,30.11,7,2,13,0.05
2013-10-7,69,64,60,66,62,59,98,96,88,30.14,29.88,8,6,13,0.11
2013-10-8,65,58,52,64,52,47,98,83,63,30.35,29.88,5,2,12,0.20
2013-10-9,60,56,53,49,47,46,85,74,65,30.43,30.35,6,3,9,0.00
2013-10-10,63,58,54,58,55,49,97,90,83,30.35,30.14,4,3,8,0.00
2013-10-11,64,59,55,59,57,54,97,93,81,30.13,30.08,6,4,9,0.00
2013-10-12,61,58,54,58,54,49,96,90,85,30.36,30.12,6,4,8,0.00
2013-10-13,58,53,45,50,47,42,91,80,67,30.43,30.34,5,3,8,0.00
2013-10-14,59,52,44,52,47,43,96,86,69,30.41,30.28,4,1,7,0.00
2013-10-15,62,55,48,55,51,47,98,89,67,30.29,30.18,3,1,7,0.01
2013-10-16,60,57,52,59,56,50,98,96,93,30.17,29.91,4,2,7,0.01
2013-10-17,67,60,55,63,59,55,98,95,86,29.91,29.77,3,1,7,0.00
2013-10-18,70,62,54,64,57,46,98,83,54,29.92,29.66,5,2,8,0.01
2013-10-19,63,55,46,54,48,42,94,79,57,30.01,29.78,6,1,6,0.02
2013-10-20,62,57,47,58,48,38,97,74,41,30.02,29.72,4,2,8,0.00
2013-10-21,64,55,44,51,45,38,85,70,51,30.14,30.03,3,2,6,0.00
2013-10-22,66,59,54,60,55,47,95,87,76,30.04,29.72,4,2,6,0.00
2013-10-23,54,48,43,46,42,38,97,79,64,29.79,29.59,2,1,7,0.20
2013-10-24,53,46,40,42,36,29,97,71,44,29.91,29.64,3,1,6,0.00
2013-10-25,50,44,37,39,34,31,86,68,54,30.18,29.91,3,1,5,0.00
2013-10-26,56,48,35,47,39,29,88,71,59,30.20,29.92,6,3,13,0.00
2013-10-27,57,51,45,48,39,33,84,63,52,30.08,29.84,3,1,5,0.00
2013-10-28,56,48,37,45,38,33,84,69,55,30.33,30.08,4,1,6,0.00
2013-10-29,52,44,38,39,36,34,89,75,60,30.42,30.34,3,1,5,0.00
2013-10-30,51,46,38,48,43,35,95,88,79,30.40,30.23,1,0,2,0.03
2013-10-31,60,54,44,58,52,43,98,93,82,30.27,29.92,6,2,9,0.00
2013-11-1,64,60,58,62,59,57,98,96,93,29.91,29.56,10,6,19,0.07
2013-11-2,59,56,53,58,54,52,98,94,83,29.74,29.60,2,0,3,0.08
2013-11-3,54,46,40,54,41,30,98,84,63,30.35,29.72,7,4,12,0.03
2013-11-4,42,39,37,31,28,26,75,65,56,30.70,30.36,7,3,9,0.00
2013-11-5,49,42,37,38,35,30,88,76,59,30.72,30.56,2,0,4,0.00
2013-11-6,55,49,40,54,46,36,98,90,77,30.57,30.13,4,2,8,0.00
2013-11-7,59,54,46,59,54,41,99,97,84,30.13,29.70,7,2,13,1.48
2013-11-8,49,43,38,40,32,25,84,64,52,30.10,29.80,4,2,9,0.00
2013-11-9,45,39,34,29,26,24,74,60,45,30.20,30.10,4,1,6,0.00
2013-11-10,57,49,39,51,43,30,93,81,67,30.11,29.74,4,2,8,0.10
2013-11-11,51,46,39,47,36,30,86,69,48,30.10,29.88,4,2,13,0.00
2013-11-12,52,38,30,48,34,25,97,86,63,30.16,29.90,6,2,9,0.16
2013-11-13,32,31,31,26,25,24,79,78,77,30.18,30.16,4,3,9,0.00
2013-11-20,39,36,34,26,24,22,70,61,55,30.60,30.50,7,3,15,0.00
2013-11-21,47,39,33,36,31,25,89,73,58,30.64,30.43,4,1,15,0.00
2013-11-22,51,47,39,51,46,36,99,96,89,30.42,29.84,3,1,15,0.24
2013-11-23,48,43,33,48,32,17,98,67,39,29.87,29.77,5,2,15,0.00
2013-11-24,33,26,23,21,10,2,61,49,36,30.15,29.78,8,5,22,0.00
2013-11-25,38,26,20,33,9,0,82,49,26,30.40,30.15,5,2,15,0.00
2013-11-26,48,42,39,48,37,33,98,81,68,30.36,30.08,7,2,15,0.07
2013-11-27,56,51,39,56,50,39,100,99,97,30.08,29.16,17,8,23,1.36
2013-11-28,39,33,27,39,22,13,99,67,47,30.44,29.46,5,3,15,0.00
2013-11-29,34,29,25,22,17,13,71,60,54,30.72,30.44,4,1,15,0.00
2013-11-30,37,30,24,30,21,14,77,68,53,30.78,30.50,5,2,15,0.00
2013-12-1,48,44,37,47,40,30,98,88,75,30.49,29.98,8,5,15,0.22
2013-12-2,46,42,38,45,41,37,99,97,94,29.98,29.90,3,1,15,0.01
2013-12-3,44,41,35,42,39,34,97,94,90,29.93,29.81,5,2,15,0.00
2013-12-4,44,38,32,36,32,30,96,82,60,30.23,29.93,3,1,15,0.00
2013-12-5,49,45,36,49,44,35,99,95,92,30.24,29.99,8,3,15,0.00
2013-12-6,54,47,37,54,46,37,100,98,93,30.11,29.92,5,2,15,0.34
2013-12-7,39,36,32,38,32,21,98,85,61,30.44,30.04,4,2,15,0.34
2013-12-8,34,31,28,25,22,21,77,69,59,30.60,30.44,4,1,15,0.00
2013-12-9,47,40,32,47,39,25,99,96,72,30.50,29.86,11,4,15,0.34
2013-12-10,38,33,26,37,32,22,98,94,80,30.01,29.79,3,1,15,0.00
2013-12-11,33,29,24,24,21,18,85,72,58,30.19,30.02,3,2,15,0.00
2013-12-12,28,24,18,20,12,5,79,61,47,30.26,30.14,6,2,11,0.00
2013-12-13,31,25,16,18,13,6,70,60,46,30.35,30.03,5,2,11,0.00
2013-12-14,31,25,20,31,19,11,98,80,66,30.58,30.18,9,4,11,0.00
2013-12-15,48,35,26,48,34,23,100,96,81,30.16,29.32,16,6,23,0.66
2013-12-16,31,27,22,25,16,9,85,63,43,30.23,29.78,4,2,11,0.00
2013-12-17,42,28,16,41,22,9,99,80,48,30.28,29.83,13,3,17,0.11
2013-12-18,38,32,28,37,28,22,98,87,71,30.12,29.73,6,3,12,0.01
2013-12-19,43,36,28,38,31,23,91,81,75,30.15,30.00,4,2,11,0.00
2013-12-20,46,40,35,44,38,32,99,94,82,30.17,29.99,4,1,11,0.00
2013-12-21,46,43,40,45,43,40,99,98,96,30.05,29.95,4,2,11,0.01
2013-12-22,53,46,43,53,46,43,100,100,99,30.03,29.90,4,2,11,0.01
2013-12-23,48,43,39,48,43,39,100,100,99,30.07,29.95,5,1,11,0.43
2013-12-24,40,34,28,39,32,22,99,92,71,30.18,30.00,6,3,12,0.32
2013-12-25,29,23,18,22,17,12,87,78,65,30.56,30.18,5,2,11,0.00
2013-12-26,40,32,21,36,29,18,98,90,75,30.52,30.07,8,3,11,0.28
2013-12-27,36,30,26,27,23,21,93,76,58,30.29,30.21,4,1,11,0.00
2013-12-28,45,37,29,39,33,23,97,84,75,30.27,30.04,4,2,11,0.00
2013-12-29,49,41,36,48,40,35,99,98,95,30.08,29.30,15,3,15,0.90
2013-12-30,43,36,26,41,31,16,99,81,55,30.14,29.39,6,2,11,0.00
2013-12-31,27,24,19,24,17,11,94,74,53,30.18,30.04,5,2,11,0.00
2014-1-1,29,24,21,16,12,8,70,57,47,30.39,30.18,4,2,11,0.00
2014-1-2,32,28,24,31,24,13,97,87,60,30.37,30.03,9,4,11,0.00